Time;durP1;ratioP1;P1;durP2;ratioP2;P2;SDS_P1;SDS_P2;PMS_P1;PMS_P2;Temp;Humidity;BMP_temperature;BMP_pressure;BME280_temperature;BME280_humidity;BME280_pressure;Samples;Min_cycle;Max_cycle;Signal;HPM_P1;HPM_P2
2023/04/12 00:00:34;;;;;;;1999.90;999.90;;;8.20;99.90;;;;;;5026201;28;20045;-72
2023/04/12 00:03:04;;;;;;;1999.90;999.90;;;8.10;99.90;;;;;;5026853;28;20030;-72
2023/04/12 00:05:30;;;;;;;1999.90;999.90;;;8.00;99.90;;;;;;5044878;28;20041;-71
2023/04/12 00:07:57;;;;;;;1999.90;999.90;;;8.20;99.90;;;;;;5035262;28;20113;-74
2023/04/12 00:10:22;;;;;;;1999.90;999.90;;;8.00;99.90;;;;;;5027208;28;20488;-72
2023/04/12 00:12:48;;;;;;;1999.90;999.90;;;8.00;99.90;;;;;;5032264;28;20037;-73
2023/04/12 00:15:14;;;;;;;1999.90;999.90;;;7.80;99.90;;;;;;5028459;28;20034;-72
2023/04/12 00:17:40;;;;;;;1999.90;999.90;;;7.70;99.90;;;;;;5028036;28;20033;-72
2023/04/12 00:20:11;;;;;;;1999.90;999.90;;;7.70;99.90;;;;;;5035031;28;20025;-72
2023/04/12 00:22:43;;;;;;;1999.90;999.90;;;7.50;99.90;;;;;;5030963;28;20044;-72
2023/04/12 00:25:09;;;;;;;1999.90;999.90;;;7.40;99.90;;;;;;5029671;28;20160;-73
2023/04/12 00:27:35;;;;;;;1999.90;999.90;;;7.40;99.90;;;;;;5028504;28;20462;-73
2023/04/12 00:30:06;;;;;;;1999.90;999.90;;;7.30;99.90;;;;;;5027510;28;20113;-72
2023/04/12 00:32:31;;;;;;;1999.90;999.90;;;7.30;99.90;;;;;;5032956;28;20021;-72
2023/04/12 00:34:57;;;;;;;1999.90;999.90;;;7.30;99.90;;;;;;5027861;28;20044;-74
2023/04/12 00:37:23;;;;;;;1999.90;999.90;;;7.20;99.90;;;;;;5029071;28;20119;-72
2023/04/12 00:39:48;;;;;;;1999.90;999.90;;;7.20;99.90;;;;;;5027555;28;20183;-72
2023/04/12 00:42:14;;;;;;;1999.90;999.90;;;7.30;99.90;;;;;;5042018;28;20037;-73
2023/04/12 00:44:40;;;;;;;1999.90;999.90;;;7.30;99.90;;;;;;5030404;28;20107;-72
2023/04/12 00:47:06;;;;;;;1999.90;999.90;;;7.20;99.90;;;;;;5031942;28;20026;-72
2023/04/12 00:49:33;;;;;;;1999.90;999.90;;;7.30;99.90;;;;;;5030080;28;20112;-71
2023/04/12 00:52:03;;;;;;;1999.90;999.90;;;7.30;99.90;;;;;;5030761;28;20037;-73
2023/04/12 00:54:31;;;;;;;1999.90;999.90;;;7.30;99.90;;;;;;5031562;28;20030;-72
2023/04/12 00:56:57;;;;;;;1999.90;999.90;;;7.30;99.90;;;;;;5032902;28;20065;-72
2023/04/12 00:59:23;;;;;;;1999.90;999.90;;;7.20;99.90;;;;;;5018914;28;20041;-72
2023/04/12 01:01:49;;;;;;;1999.90;999.90;;;7.20;99.90;;;;;;5027032;28;20471;-72
2023/04/12 01:04:15;;;;;;;1999.90;999.90;;;7.30;99.90;;;;;;5025557;28;20143;-74
2023/04/12 01:07:14;;;;;;;1999.90;999.90;;;7.20;99.90;;;;;;5032290;28;20029;-73
2023/04/12 01:10:01;;;;;;;1999.90;999.90;;;7.20;99.90;;;;;;5030387;28;20032;-74
2023/04/12 01:12:51;;;;;;;1999.90;999.90;;;7.40;99.90;;;;;;5036747;28;20613;-74
2023/04/12 01:15:17;;;;;;;1999.90;999.90;;;7.30;99.90;;;;;;5031432;28;20487;-72
2023/04/12 01:17:58;;;;;;;1999.90;999.90;;;7.30;99.90;;;;;;5037537;28;20037;-72
2023/04/12 01:20:34;;;;;;;1999.90;999.90;;;7.20;99.90;;;;;;5034290;28;20403;-73
2023/04/12 01:23:19;;;;;;;1999.90;999.90;;;7.20;99.90;;;;;;5035327;28;20037;-74
2023/04/12 01:25:47;;;;;;;1999.90;999.90;;;7.20;99.90;;;;;;5038094;28;20028;-73
2023/04/12 01:28:27;;;;;;;1999.90;999.90;;;7.10;99.90;;;;;;5037832;28;20055;-72
2023/04/12 01:30:54;;;;;;;1999.90;999.90;;;7.10;99.90;;;;;;5034164;28;20036;-72
2023/04/12 01:33:22;;;;;;;1999.90;999.90;;;7.00;99.90;;;;;;5037938;28;20029;-72
2023/04/12 01:35:50;;;;;;;1999.90;999.90;;;7.00;99.90;;;;;;5029955;28;20502;-72
2023/04/12 01:38:16;;;;;;;1999.90;999.90;;;7.10;99.90;;;;;;5030644;28;20030;-72
2023/04/12 01:40:42;;;;;;;1999.90;999.90;;;7.00;99.90;;;;;;5040625;28;20122;-71
2023/04/12 01:43:10;;;;;;;1999.90;999.90;;;7.10;99.90;;;;;;5030877;28;20108;-72
2023/04/12 01:45:36;;;;;;;1999.90;999.90;;;7.00;99.90;;;;;;5037347;28;20029;-72
2023/04/12 01:48:05;;;;;;;1999.90;999.90;;;7.00;99.90;;;;;;5034923;28;20061;-72
2023/04/12 01:50:47;;;;;;;1999.90;999.90;;;7.00;99.90;;;;;;5032692;28;20104;-73
2023/04/12 01:53:17;;;;;;;1999.90;999.90;;;6.90;99.90;;;;;;5029910;28;20502;-74
2023/04/12 01:55:45;;;;;;;1999.90;999.90;;;6.90;99.90;;;;;;5035470;28;20084;-72
2023/04/12 01:58:14;;;;;;;1999.90;999.90;;;6.90;99.90;;;;;;5033542;28;20044;-74
2023/04/12 02:00:43;;;;;;;1999.90;999.90;;;6.90;99.90;;;;;;5036744;28;20023;-72
2023/04/12 02:03:09;;;;;;;1999.90;999.90;;;6.90;99.90;;;;;;5033234;28;20119;-73
2023/04/12 02:05:35;;;;;;;1999.90;999.90;;;7.00;99.90;;;;;;5039084;28;20167;-73
2023/04/12 02:08:02;;;;;;;1999.90;999.90;;;6.90;99.90;;;;;;5052191;28;20037;-72
2023/04/12 02:10:29;;;;;;;1999.90;999.90;;;6.90;99.90;;;;;;5042376;28;20084;-72
2023/04/12 02:12:58;;;;;;;1999.90;999.90;;;6.90;99.90;;;;;;5036162;28;20104;-73
2023/04/12 02:15:25;;;;;;;1999.90;999.90;;;6.90;99.90;;;;;;5039471;28;20578;-73
2023/04/12 02:17:52;;;;;;;1999.90;999.90;;;7.00;99.90;;;;;;5036624;28;20048;-72
2023/04/12 02:20:19;;;;;;;1999.90;999.90;;;7.00;99.90;;;;;;5035989;28;20037;-72
2023/04/12 02:22:45;;;;;;;1999.90;999.90;;;6.90;99.90;;;;;;5034529;28;20377;-74
2023/04/12 02:25:11;;;;;;;1999.90;999.90;;;6.90;99.90;;;;;;5032542;28;20037;-74
2023/04/12 02:27:37;;;;;;;1999.90;999.90;;;6.90;99.90;;;;;;5034509;28;20036;-71
2023/04/12 02:30:04;;;;;;;1999.90;999.90;;;6.90;99.90;;;;;;5038648;28;20067;-72
2023/04/12 02:32:29;;;;;;;1999.90;999.90;;;6.90;99.90;;;;;;5037026;28;20119;-72
2023/04/12 02:34:56;;;;;;;1999.90;999.90;;;6.90;99.90;;;;;;5035534;28;20061;-71
2023/04/12 02:37:24;;;;;;;1999.90;999.90;;;7.00;99.90;;;;;;5037582;28;20138;-73
2023/04/12 02:39:50;;;;;;;1999.90;999.90;;;7.00;99.90;;;;;;5029809;28;20091;-74
2023/04/12 02:42:15;;;;;;;1999.90;999.90;;;6.90;99.90;;;;;;5032195;28;20116;-72
2023/04/12 02:44:46;;;;;;;1999.90;999.90;;;6.90;99.90;;;;;;5037094;28;20457;-73
2023/04/12 02:47:12;;;;;;;1999.90;999.90;;;6.90;99.90;;;;;;5033377;28;20037;-72
2023/04/12 02:49:38;;;;;;;1999.90;999.90;;;6.90;99.90;;;;;;5034474;28;20020;-73
2023/04/12 02:52:03;;;;;;;1999.90;999.90;;;6.80;99.90;;;;;;5035776;28;20037;-72
2023/04/12 02:54:29;;;;;;;1999.90;999.90;;;7.00;99.90;;;;;;5036841;28;20029;-73
2023/04/12 02:56:55;;;;;;;1999.90;999.90;;;7.00;99.90;;;;;;5034380;28;20449;-73
2023/04/12 02:59:20;;;;;;;1999.90;999.90;;;6.90;99.90;;;;;;5040800;28;20036;-73
2023/04/12 03:01:46;;;;;;;1999.90;999.90;;;6.90;99.90;;;;;;5037078;28;20442;-72
2023/04/12 03:04:11;;;;;;;1999.90;999.90;;;6.90;99.90;;;;;;5034465;28;20037;-72
2023/04/12 03:06:44;;;;;;;1999.90;999.90;;;6.90;99.90;;;;;;5054636;28;20025;-73
2023/04/12 03:09:10;;;;;;;1999.90;999.90;;;6.90;99.90;;;;;;5035637;28;20029;-75
2023/04/12 03:11:36;;;;;;;1999.90;999.90;;;6.90;99.90;;;;;;5042744;28;20026;-72
2023/04/12 03:14:01;;;;;;;1999.90;999.90;;;6.80;99.90;;;;;;5038838;28;20029;-73
2023/04/12 03:16:28;;;;;;;1999.90;999.90;;;6.70;99.90;;;;;;5039125;28;20037;-73
2023/04/12 03:18:55;;;;;;;1999.90;999.90;;;6.70;99.90;;;;;;5036633;28;20572;-75
2023/04/12 03:21:21;;;;;;;1999.90;999.90;;;6.70;99.90;;;;;;5044285;28;20049;-74
2023/04/12 03:23:47;;;;;;;1999.90;999.90;;;6.70;99.90;;;;;;5038928;28;20039;-72
2023/04/12 03:26:12;;;;;;;1999.90;999.90;;;6.60;99.90;;;;;;5044667;28;20036;-73
2023/04/12 03:28:40;;;;;;;1999.90;999.90;;;6.70;99.90;;;;;;5037479;28;20029;-72
2023/04/12 03:31:06;;;;;;;1999.90;999.90;;;6.70;99.90;;;;;;5043964;28;20057;-72
2023/04/12 03:33:32;;;;;;;1999.90;999.90;;;6.70;99.90;;;;;;5034772;28;20026;-71
2023/04/12 03:35:57;;;;;;;1999.90;999.90;;;6.80;99.90;;;;;;5039556;28;20119;-75
2023/04/12 03:38:23;;;;;;;1999.90;999.90;;;6.80;99.90;;;;;;5032608;28;20087;-73
2023/04/12 03:40:48;;;;;;;1999.90;999.90;;;6.80;99.90;;;;;;5041597;28;20491;-72
2023/04/12 03:43:14;;;;;;;1999.90;999.90;;;6.70;99.90;;;;;;5032756;28;20091;-72
2023/04/12 03:45:42;;;;;;;1999.90;999.90;;;6.80;99.90;;;;;;5030128;28;20030;-73
2023/04/12 03:48:07;;;;;;;1999.90;999.90;;;6.70;99.90;;;;;;5034832;28;20065;-72
2023/04/12 03:50:43;;;;;;;1999.90;999.90;;;6.70;99.90;;;;;;5040375;28;20069;-72
2023/04/12 03:53:13;;;;;;;1999.90;999.90;;;6.80;99.90;;;;;;5027508;28;20522;-72
2023/04/12 03:55:39;;;;;;;1999.90;999.90;;;6.80;99.90;;;;;;5024282;28;20025;-72
2023/04/12 03:58:05;;;;;;;1999.90;999.90;;;6.80;99.90;;;;;;5027880;28;20044;-72
2023/04/12 04:00:30;;;;;;;1999.90;999.90;;;6.80;99.90;;;;;;5026010;28;20432;-72
2023/04/12 04:03:01;;;;;;;1999.90;999.90;;;6.90;99.90;;;;;;5029795;28;20140;-72
2023/04/12 04:05:30;;;;;;;1999.90;999.90;;;6.80;99.90;;;;;;5041556;28;20039;-72
2023/04/12 04:08:01;;;;;;;1999.90;999.90;;;6.70;99.90;;;;;;5030782;28;20567;-72
2023/04/12 04:10:27;;;;;;;;;;;6.70;99.90;;;;;;5037683;28;20044;-71
2023/04/12 04:12:53;;;;;;;1999.90;999.90;;;6.70;99.90;;;;;;5035575;28;20338;-72
2023/04/12 04:15:19;;;;;;;1999.90;999.90;;;6.70;99.90;;;;;;5040700;28;20037;-73
2023/04/12 04:17:46;;;;;;;1999.90;999.90;;;6.70;99.90;;;;;;5033412;28;20060;-73
2023/04/12 04:20:13;;;;;;;1999.90;999.90;;;6.70;99.90;;;;;;5060898;28;20033;-73
2023/04/12 04:22:41;;;;;;;1999.90;999.90;;;6.70;99.90;;;;;;5036125;28;20041;-72
2023/04/12 04:25:07;;;;;;;1999.90;999.90;;;6.80;99.90;;;;;;5040331;28;20021;-73
2023/04/12 04:27:37;;;;;;;1999.90;999.90;;;6.80;99.90;;;;;;5035915;28;20057;-75
2023/04/12 04:30:03;;;;;;;1999.90;999.90;;;6.80;99.90;;;;;;5040232;28;20033;-72
2023/04/12 04:32:30;;;;;;;1999.90;999.90;;;6.70;99.90;;;;;;5035526;28;20029;-72
2023/04/12 04:34:59;;;;;;;1999.90;999.90;;;6.70;99.90;;;;;;5037430;28;20037;-72
2023/04/12 04:37:34;;;;;;;1999.90;999.90;;;6.70;99.90;;;;;;5036186;28;20450;-72
2023/04/12 04:40:01;;;;;;;1999.90;999.90;;;6.80;99.90;;;;;;5042372;28;20522;-72
2023/04/12 04:42:28;;;;;;;1999.90;999.90;;;6.80;99.90;;;;;;5036606;28;20049;-73
2023/04/12 04:44:59;;;;;;;1999.90;999.90;;;6.90;99.90;;;;;;5037926;28;20064;-72
2023/04/12 04:47:24;;;;;;;1999.90;999.90;;;6.80;99.90;;;;;;5036520;28;20029;-73
2023/04/12 04:49:50;;;;;;;1999.90;999.90;;;6.80;99.90;;;;;;5040290;28;20458;-72
2023/04/12 04:52:17;;;;;;;1999.90;999.90;;;6.80;99.90;;;;;;5035152;28;20029;-73
2023/04/12 04:54:42;;;;;;;1999.90;999.90;;;6.70;99.90;;;;;;5040221;28;20045;-73
2023/04/12 04:57:10;;;;;;;1999.90;999.90;;;6.70;99.90;;;;;;5050932;28;20041;-72
2023/04/12 04:59:36;;;;;;;1999.90;999.90;;;6.80;99.90;;;;;;5036116;28;20044;-73
2023/04/12 05:02:06;;;;;;;1999.90;999.90;;;6.80;99.90;;;;;;5035198;28;20037;-73
2023/04/12 05:04:31;;;;;;;1999.90;999.90;;;6.70;99.90;;;;;;5041832;28;20556;-72
2023/04/12 05:06:57;;;;;;;1999.90;999.90;;;6.70;99.90;;;;;;5036795;28;20124;-73
2023/04/12 05:09:23;;;;;;;1999.90;999.90;;;6.70;99.90;;;;;;5040741;28;20034;-73
2023/04/12 05:11:49;;;;;;;1999.90;999.90;;;6.70;99.90;;;;;;5037060;28;20057;-73
2023/04/12 05:14:15;;;;;;;1999.90;999.90;;;6.60;99.90;;;;;;5038926;28;20061;-73
2023/04/12 05:16:40;;;;;;;1999.90;999.90;;;6.70;99.90;;;;;;5030644;28;20626;-73
2023/04/12 05:19:06;;;;;;;1999.90;999.90;;;6.80;99.90;;;;;;5044773;28;20022;-74
2023/04/12 05:21:33;;;;;;;1999.90;999.90;;;6.80;99.90;;;;;;5035579;28;20365;-73
2023/04/12 05:23:58;;;;;;;1999.90;999.90;;;6.70;99.90;;;;;;5040990;28;20030;-73
2023/04/12 05:26:24;;;;;;;1999.90;999.90;;;6.80;99.90;;;;;;5037109;28;20033;-73
2023/04/12 05:28:50;;;;;;;1999.90;999.90;;;6.90;99.90;;;;;;5034987;28;20032;-73
2023/04/12 05:31:16;;;;;;;1999.90;999.90;;;6.90;99.90;;;;;;5034939;28;20030;-72
2023/04/12 05:33:43;;;;;;;1999.90;999.90;;;7.00;99.90;;;;;;5040358;28;20048;-74
2023/04/12 05:36:09;;;;;;;1999.90;999.90;;;6.90;99.90;;;;;;5048092;28;20057;-73
2023/04/12 05:38:35;;;;;;;1999.90;999.90;;;6.90;99.90;;;;;;5042704;28;20029;-73
2023/04/12 05:41:04;;;;;;;1999.90;999.90;;;7.00;99.90;;;;;;5040306;28;20033;-72
2023/04/12 05:43:30;;;;;;;1999.90;999.90;;;6.80;99.90;;;;;;5036194;28;20061;-72
2023/04/12 05:45:56;;;;;;;1999.90;999.90;;;7.00;99.90;;;;;;5035056;28;20072;-72
2023/04/12 05:48:25;;;;;;;1999.90;999.90;;;7.00;99.90;;;;;;5031063;28;20068;-72
2023/04/12 05:50:51;;;;;;;1999.90;999.90;;;7.00;99.90;;;;;;5036607;28;20041;-72
2023/04/12 05:53:18;;;;;;;1999.90;999.90;;;7.00;99.90;;;;;;5036635;28;20032;-72
2023/04/12 05:55:44;;;;;;;1999.90;999.90;;;7.00;99.90;;;;;;5036031;28;20040;-73
2023/04/12 05:58:09;;;;;;;1999.90;999.90;;;7.00;99.90;;;;;;5038438;28;20037;-73
2023/04/12 06:00:35;;;;;;;1999.90;999.90;;;7.00;99.90;;;;;;5034163;28;20458;-72
2023/04/12 06:03:01;;;;;;;1999.90;999.90;;;6.90;99.90;;;;;;5039426;28;20042;-72
2023/04/12 06:05:27;;;;;;;1999.90;999.90;;;7.10;99.90;;;;;;5037319;28;20491;-72
2023/04/12 06:07:53;;;;;;;1999.90;999.90;;;7.10;99.90;;;;;;5036056;28;20043;-75
2023/04/12 06:10:18;;;;;;;1999.90;999.90;;;7.10;99.90;;;;;;5037073;28;20099;-72
2023/04/12 06:12:44;;;;;;;1999.90;999.90;;;7.10;99.90;;;;;;5037445;28;20029;-72
2023/04/12 06:15:10;;;;;;;1999.90;999.90;;;7.20;99.90;;;;;;5033443;28;20047;-74
2023/04/12 06:17:36;;;;;;;1999.90;999.90;;;7.30;99.90;;;;;;5035671;28;20033;-74
2023/04/12 06:20:08;;;;;;;1999.90;999.90;;;7.40;99.90;;;;;;5040095;28;20127;-71
2023/04/12 06:22:34;;;;;;;1999.90;999.90;;;7.30;99.90;;;;;;5036338;28;20115;-72
2023/04/12 06:25:00;;;;;;;1999.90;999.90;;;7.30;99.90;;;;;;5037317;28;20614;-73
2023/04/12 06:27:26;;;;;;;1999.90;999.90;;;7.50;99.90;;;;;;5035185;28;20104;-73
2023/04/12 06:29:52;;;;;;;1999.90;999.90;;;7.70;99.90;;;;;;5037609;28;20037;-74
2023/04/12 06:32:17;;;;;;;1999.90;999.90;;;7.70;99.90;;;;;;5030343;28;20464;-72
2023/04/12 06:34:43;;;;;;;1999.90;999.90;;;7.80;99.90;;;;;;5035883;28;20930;-74
2023/04/12 06:37:09;;;;;;;1999.90;999.90;;;7.80;99.90;;;;;;5032161;28;20060;-74
2023/04/12 06:39:35;;;;;;;1999.90;999.90;;;7.80;99.90;;;;;;5036600;28;20794;-73
2023/04/12 06:42:01;;;;;;;1999.90;999.90;;;7.80;99.90;;;;;;5031962;28;20056;-73
2023/04/12 06:44:27;;;;;;;1999.90;999.90;;;7.80;99.90;;;;;;5036817;28;20116;-73
2023/04/12 06:46:53;;;;;;;1999.90;999.90;;;7.80;99.90;;;;;;5032432;28;20554;-74
2023/04/12 06:49:18;;;;;;;1999.90;999.90;;;7.80;99.90;;;;;;5035862;28;20025;-73
2023/04/12 06:51:44;;;;;;;1999.90;999.90;;;7.70;99.90;;;;;;5037317;28;20415;-74
2023/04/12 06:54:11;;;;;;;1999.90;999.90;;;7.70;99.90;;;;;;5038523;28;20026;-72
2023/04/12 06:56:37;;;;;;;1999.90;999.90;;;7.70;99.90;;;;;;5035354;28;20116;-72
2023/04/12 06:59:03;;;;;;;1999.90;999.90;;;7.70;99.90;;;;;;5035452;28;20034;-73
2023/04/12 07:01:28;;;;;;;1999.90;999.90;;;7.80;99.90;;;;;;5031647;28;20030;-74
2023/04/12 07:03:54;;;;;;;1999.90;999.90;;;7.80;99.90;;;;;;5038512;28;20495;-73
2023/04/12 07:06:20;;;;;;;1999.90;999.90;;;7.80;99.90;;;;;;5033643;28;20423;-73
2023/04/12 07:08:45;;;;;;;1999.90;999.90;;;7.80;99.90;;;;;;5037267;28;20109;-73
2023/04/12 07:11:11;;;;;;;1999.90;999.90;;;7.80;99.90;;;;;;5034852;28;20035;-73
2023/04/12 07:13:37;;;;;;;1999.90;999.90;;;8.00;99.90;;;;;;5041737;28;20053;-73
2023/04/12 07:16:02;;;;;;;1999.90;999.90;;;8.00;99.90;;;;;;5032843;28;20026;-72
2023/04/12 07:18:28;;;;;;;1999.90;999.90;;;8.10;99.90;;;;;;5041958;28;20365;-73
2023/04/12 07:20:57;;;;;;;1999.90;999.90;;;8.00;99.90;;;;;;5033312;28;20033;-73
2023/04/12 07:23:24;;;;;;;1999.90;999.90;;;8.10;99.90;;;;;;5040850;28;20053;-73
2023/04/12 07:25:50;;;;;;;1999.90;999.90;;;8.20;99.90;;;;;;5030640;28;20026;-72
2023/04/12 07:28:16;;;;;;;1999.90;999.90;;;8.20;99.90;;;;;;5033192;28;20116;-72
2023/04/12 07:30:42;;;;;;;1999.90;999.90;;;8.30;99.90;;;;;;5044625;28;20127;-75
2023/04/12 07:33:07;;;;;;;1999.90;999.90;;;8.30;99.90;;;;;;5037773;28;20520;-72
2023/04/12 07:35:33;;;;;;;1999.90;999.90;;;8.50;99.90;;;;;;5033936;28;20057;-73
2023/04/12 07:38:00;;;;;;;1999.90;999.90;;;8.70;99.90;;;;;;5039425;28;20044;-73
2023/04/12 07:40:25;;;;;;;1999.90;999.90;;;8.60;99.90;;;;;;5034643;28;20029;-73
2023/04/12 07:42:51;;;;;;;1999.90;999.90;;;8.50;99.90;;;;;;5039171;28;20048;-74
2023/04/12 07:45:18;;;;;;;1999.90;999.90;;;8.70;99.90;;;;;;5030070;28;20033;-72
2023/04/12 07:47:44;;;;;;;1999.90;999.90;;;8.60;99.90;;;;;;5037853;28;20069;-73
2023/04/12 07:50:10;;;;;;;1999.90;999.90;;;8.60;99.90;;;;;;5029596;28;20064;-74
2023/04/12 07:52:36;;;;;;;1999.90;999.90;;;8.80;99.90;;;;;;5042735;28;20403;-74
2023/04/12 07:55:02;;;;;;;1999.90;999.90;;;8.80;99.90;;;;;;5030137;28;20028;-73
2023/04/12 07:57:27;;;;;;;1999.90;999.90;;;8.90;99.90;;;;;;5042406;28;20487;-72
2023/04/12 07:59:53;;;;;;;1999.90;999.90;;;9.10;99.90;;;;;;5038850;28;20095;-72
2023/04/12 08:02:25;;;;;;;1999.90;999.90;;;9.20;99.90;;;;;;5039314;28;20029;-74
2023/04/12 08:04:54;;;;;;;1999.90;999.90;;;9.40;99.90;;;;;;5035220;28;20071;-72
2023/04/12 08:07:21;;;;;;;1999.90;999.90;;;9.60;99.90;;;;;;5032985;28;20399;-73
2023/04/12 08:09:47;;;;;;;1999.90;999.90;;;9.30;99.90;;;;;;5035014;28;20021;-73
2023/04/12 08:12:13;;;;;;;1999.90;999.90;;;9.50;99.90;;;;;;5040441;28;20028;-73
2023/04/12 08:14:39;;;;;;;1999.90;999.90;;;9.50;99.90;;;;;;5048148;28;20742;-72
2023/04/12 08:17:05;;;;;;;1999.90;999.90;;;9.50;99.90;;;;;;5037132;28;20045;-73
2023/04/12 08:19:30;;;;;;;1999.90;999.90;;;9.70;99.90;;;;;;5038414;28;20035;-74
2023/04/12 08:21:56;;;;;;;1999.90;999.90;;;9.80;99.90;;;;;;5043553;28;20082;-73
2023/04/12 08:24:22;;;;;;;1999.90;999.90;;;9.90;99.90;;;;;;5038285;28;20032;-72
2023/04/12 08:26:50;;;;;;;1999.90;999.90;;;10.30;99.90;;;;;;5039883;28;20040;-72
2023/04/12 08:29:17;;;;;;;1999.90;999.90;;;10.70;99.90;;;;;;5037071;28;20376;-73
2023/04/12 08:31:43;;;;;;;1999.90;999.90;;;10.80;99.90;;;;;;5038942;28;20056;-72
2023/04/12 08:34:09;;;;;;;1999.90;999.90;;;10.90;99.90;;;;;;5036937;28;20090;-72
2023/04/12 08:36:35;;;;;;;1999.90;999.90;;;10.90;99.90;;;;;;5035290;28;20049;-73
2023/04/12 08:39:01;;;;;;;1999.90;999.90;;;10.80;99.90;;;;;;5032753;28;20408;-73
2023/04/12 08:41:27;;;;;;;1999.90;999.90;;;10.80;99.90;;;;;;5026768;28;20177;-73
2023/04/12 08:43:56;;;;;;;1999.90;999.90;;;10.80;99.90;;;;;;5033884;28;20033;-73
2023/04/12 08:46:22;;;;;;;1999.90;999.90;;;11.00;99.90;;;;;;5030423;28;20045;-73
2023/04/12 08:48:53;;;;;;;1999.90;999.90;;;11.50;99.90;;;;;;5035197;28;20047;-73
2023/04/12 08:51:21;;;;;;;1999.90;999.90;;;11.40;99.90;;;;;;5036059;28;20036;-72
2023/04/12 08:53:47;;;;;;;1999.90;999.90;;;11.50;99.90;;;;;;5054648;28;20082;-72
2023/04/12 08:56:16;;;;;;;1999.90;999.90;;;11.50;99.90;;;;;;5032462;28;21402;-72
2023/04/12 08:58:47;;;;;;;1999.90;999.90;;;11.50;99.90;;;;;;5035123;28;20030;-73
2023/04/12 09:01:14;;;;;;;1999.90;999.90;;;11.60;99.90;;;;;;5040491;28;20491;-72
2023/04/12 09:03:44;;;;;;;1999.90;999.90;;;12.40;99.90;;;;;;5035785;28;20037;-72
2023/04/12 09:06:11;;;;;;;1999.90;999.90;;;13.00;99.90;;;;;;5043806;28;20024;-72
2023/04/12 09:08:37;;;;;;;1999.90;999.90;;;12.90;99.90;;;;;;5031513;28;20037;-73
2023/04/12 09:11:22;;;;;;;1999.90;999.90;;;12.40;99.90;;;;;;5040595;28;20036;-72
2023/04/12 09:13:48;;;;;;;1999.90;999.90;;;12.30;99.90;;;;;;5039360;28;20044;-72
2023/04/12 09:16:13;;;;;;;1999.90;999.90;;;12.10;99.90;;;;;;5039987;28;20045;-72
2023/04/12 09:18:50;;;;;;;1999.90;999.90;;;11.90;99.90;;;;;;5034956;28;20510;-73
2023/04/12 09:21:15;;;;;;;1999.90;999.90;;;12.20;99.90;;;;;;5039376;28;20021;-73
2023/04/12 09:23:41;;;;;;;1999.90;999.90;;;12.10;99.90;;;;;;5032068;28;20048;-72
2023/04/12 09:26:08;;;;;;;1999.90;999.90;;;12.10;99.90;;;;;;5039188;28;20037;-72
2023/04/12 09:28:34;;;;;;;1999.90;999.90;;;11.70;99.90;;;;;;5037552;28;20380;-72
2023/04/12 09:31:02;;;;;;;1999.90;999.90;;;12.00;99.90;;;;;;5036915;28;20037;-71
2023/04/12 09:33:38;;;;;;;1999.90;999.90;;;12.20;99.90;;;;;;5040159;28;20025;-73
2023/04/12 09:36:05;;;;;;;1999.90;999.90;;;12.40;99.90;;;;;;5037563;28;20054;-72
2023/04/12 09:38:32;;;;;;;1999.90;999.90;;;12.20;99.90;;;;;;5034750;28;20132;-73
2023/04/12 09:41:18;;;;;;;1999.90;999.90;;;12.10;99.90;;;;;;5039675;28;20067;-72
2023/04/12 09:43:44;;;;;;;1999.90;999.90;;;11.80;99.90;;;;;;5036614;28;20435;-72
2023/04/12 09:46:11;;;;;;;1999.90;999.90;;;11.90;99.90;;;;;;5039203;28;20087;-73
2023/04/12 09:48:39;;;;;;;1999.90;999.90;;;12.20;99.90;;;;;;5035498;28;20068;-73
2023/04/12 09:51:08;;;;;;;1999.90;999.90;;;11.90;99.90;;;;;;5038528;28;20029;-72
2023/04/12 09:53:37;;;;;;;1999.90;999.90;;;12.00;99.90;;;;;;5035749;28;20036;-72
2023/04/12 09:56:04;;;;;;;1999.90;999.90;;;11.90;99.90;;;;;;5043208;28;20040;-72
2023/04/12 09:58:32;;;;;;;1999.90;999.90;;;11.80;99.90;;;;;;5036067;28;20678;-72
2023/04/12 10:01:01;;;;;;;1999.90;999.90;;;11.70;99.90;;;;;;5040813;28;20041;-72
2023/04/12 10:03:27;;;;;;;1999.90;999.90;;;12.20;99.90;;;;;;5032706;28;20442;-73
2023/04/12 10:05:54;;;;;;;1999.90;999.90;;;12.00;99.90;;;;;;5039987;28;20490;-72
2023/04/12 10:08:22;;;;;;;1999.90;999.90;;;12.00;99.90;;;;;;5037651;28;20082;-72
2023/04/12 10:10:48;;;;;;;1999.90;999.90;;;12.20;99.90;;;;;;5036711;28;20029;-72
2023/04/12 10:13:16;;;;;;;1999.90;999.90;;;12.10;99.90;;;;;;5035990;28;21434;-73
2023/04/12 10:15:44;;;;;;;1999.90;999.90;;;12.30;99.90;;;;;;5039418;28;20048;-73
2023/04/12 10:18:12;;;;;;;1999.90;999.90;;;12.00;99.90;;;;;;5035142;28;20053;-73
2023/04/12 10:20:40;;;;;;;1999.90;999.90;;;12.10;99.90;;;;;;5038394;28;20044;-72
2023/04/12 10:23:08;;;;;;;1999.90;999.90;;;11.90;99.90;;;;;;5030931;28;20045;-72
2023/04/12 10:25:33;;;;;;;1999.90;999.90;;;12.20;99.90;;;;;;5041300;28;20040;-72
2023/04/12 10:28:17;;;;;;;1999.90;999.90;;;12.20;99.90;;;;;;5036683;28;20037;-73
2023/04/12 10:30:43;;;;;;;1999.90;999.90;;;12.30;99.90;;;;;;5052370;28;20053;-72
2023/04/12 10:33:13;;;;;;;1999.90;999.90;;;12.20;99.90;;;;;;5035525;28;20032;-72
2023/04/12 10:35:52;;;;;;;;;;;12.20;99.90;;;;;;5040416;28;20045;-72
2023/04/12 10:38:18;;;;;;;1999.90;999.90;;;12.30;99.90;;;;;;5030081;28;19913;-72
2023/04/12 10:41:06;;;;;;;1999.90;999.90;;;12.20;99.90;;;;;;5058560;28;20034;-72
2023/04/12 10:43:32;;;;;;;1999.90;999.90;;;12.20;99.90;;;;;;5031770;28;20385;-72
2023/04/12 10:46:03;;;;;;;1999.90;999.90;;;12.20;99.90;;;;;;5039965;28;20052;-72
2023/04/12 10:48:28;;;;;;;;;;;12.20;99.90;;;;;;5034366;28;20044;-73
2023/04/12 10:51:13;;;;;;;1999.90;999.90;;;11.80;99.90;;;;;;5039277;28;19912;-72
2023/04/12 10:53:39;;;;;;;1999.90;999.90;;;11.70;99.90;;;;;;5034894;28;20036;-72
2023/04/12 10:56:33;;;;;;;1999.90;999.90;;;11.70;99.90;;;;;;5038987;28;20091;-72
2023/04/12 10:59:00;;;;;;;1999.90;999.90;;;11.80;99.90;;;;;;5033079;28;20021;-72
2023/04/12 11:01:27;;;;;;;1999.90;999.90;;;12.10;99.90;;;;;;5033230;28;20033;-73
2023/04/12 11:04:15;;;;;;;1999.90;999.90;;;12.00;99.90;;;;;;5028810;28;20087;-72
2023/04/12 11:06:51;;;;;;;1999.90;999.90;;;12.00;99.90;;;;;;5035081;28;20044;-72
2023/04/12 11:09:38;;;;;;;1999.90;999.90;;;11.70;99.90;;;;;;5020660;28;20021;-72
2023/04/12 11:12:03;;;;;;;1999.90;999.90;;;11.70;99.90;;;;;;5031092;28;20029;-73
2023/04/12 11:14:50;;;;;;;1999.90;999.90;;;11.30;99.90;;;;;;5043686;28;20484;-73
2023/04/12 11:17:16;;;;;;;1999.90;999.90;;;11.20;99.90;;;;;;5030728;28;20040;-73
2023/04/12 11:19:49;;;;;;;1999.90;999.90;;;11.00;99.90;;;;;;5035830;28;20033;-73
2023/04/12 11:22:16;;;;;;;1999.90;999.90;;;11.00;99.90;;;;;;5036270;28;20096;-73
2023/04/12 11:24:44;;;;;;;1999.90;999.90;;;11.10;99.90;;;;;;5039251;28;20037;-73
2023/04/12 11:27:11;;;;;;;1999.90;999.90;;;11.10;99.90;;;;;;5033964;28;20051;-73
2023/04/12 11:29:36;;;;;;;1999.90;999.90;;;11.30;99.90;;;;;;5033391;28;20033;-73
2023/04/12 11:32:03;;;;;;;1999.90;999.90;;;11.40;99.90;;;;;;5037827;28;20029;-73
2023/04/12 11:34:33;;;;;;;1999.90;999.90;;;11.50;99.90;;;;;;5042371;28;20029;-73
2023/04/12 11:36:59;;;;;;;1999.90;999.90;;;11.50;99.90;;;;;;5038211;28;20057;-72
2023/04/12 11:39:29;;;;;;;1999.90;999.90;;;11.80;99.90;;;;;;5038071;28;20179;-71
2023/04/12 11:41:56;;;;;;;1999.90;999.90;;;12.00;99.90;;;;;;5041617;28;20040;-73
2023/04/12 11:44:22;;;;;;;1999.90;999.90;;;11.60;99.90;;;;;;5039017;28;20036;-73
2023/04/12 11:46:48;;;;;;;1999.90;999.90;;;11.60;99.90;;;;;;5036877;28;20377;-71
2023/04/12 11:49:17;;;;;;;1999.90;999.90;;;11.50;99.90;;;;;;5042829;28;20061;-72
2023/04/12 11:51:44;;;;;;;1999.90;999.90;;;11.90;99.90;;;;;;5035699;28;20087;-73
2023/04/12 11:54:11;;;;;;;1999.90;999.90;;;11.80;99.90;;;;;;5041674;28;20377;-72
2023/04/12 11:56:37;;;;;;;1999.90;999.90;;;11.90;99.90;;;;;;5039972;28;20144;-72
2023/04/12 11:59:03;;;;;;;1999.90;999.90;;;11.50;99.90;;;;;;5037867;28;20567;-72
2023/04/12 12:01:30;;;;;;;1999.90;999.90;;;11.60;99.90;;;;;;5041949;28;20033;-73
2023/04/12 12:03:58;;;;;;;1999.90;999.90;;;11.50;99.90;;;;;;5039495;28;20033;-73
2023/04/12 12:06:24;;;;;;;1999.90;999.90;;;11.20;99.90;;;;;;5040424;28;20109;-72
2023/04/12 12:08:51;;;;;;;1999.90;999.90;;;11.50;99.90;;;;;;5038100;28;20111;-73